sensor_id;sensor_type;location;lat;lon;timestamp;pressure;altitude;pressure_sealevel;temperature;humidity
55032;BME280;40928;51.076;7.950;2022-11-15T00:01:47;96539.47;;;9.27;100.00
55032;BME280;40928;51.076;7.950;2022-11-15T00:04:31;96542.38;;;9.25;100.00
55032;BME280;40928;51.076;7.950;2022-11-15T00:07:15;96534.78;;;9.51;100.00
55032;BME280;40928;51.076;7.950;2022-11-15T00:09:59;96527.69;;;9.40;100.00
55032;BME280;40928;51.076;7.950;2022-11-15T00:12:43;96521.47;;;9.34;100.00
55032;BME280;40928;51.076;7.950;2022-11-15T00:15:27;96520.00;;;9.43;100.00
55032;BME280;40928;51.076;7.950;2022-11-15T00:18:15;96524.84;;;9.47;100.00
55032;BME280;40928;51.076;7.950;2022-11-15T00:21:10;96514.84;;;9.37;100.00
55032;BME280;40928;51.076;7.950;2022-11-15T00:23:54;96508.41;;;9.33;100.00
55032;BME280;40928;51.076;7.950;2022-11-15T00:26:38;96515.91;;;9.36;100.00
55032;BME280;40928;51.076;7.950;2022-11-15T00:29:22;96513.56;;;9.39;100.00
55032;BME280;40928;51.076;7.950;2022-11-15T00:32:06;96514.69;;;9.43;100.00
55032;BME280;40928;51.076;7.950;2022-11-15T00:34:50;96519.78;;;9.45;100.00
55032;BME280;40928;51.076;7.950;2022-11-15T00:37:34;96514.28;;;9.52;100.00
55032;BME280;40928;51.076;7.950;2022-11-15T00:40:18;96516.13;;;9.51;100.00
55032;BME280;40928;51.076;7.950;2022-11-15T00:43:02;96512.19;;;9.54;100.00
55032;BME280;40928;51.076;7.950;2022-11-15T00:45:46;96518.31;;;9.54;100.00
55032;BME280;40928;51.076;7.950;2022-11-15T00:48:29;96515.91;;;9.53;100.00
55032;BME280;40928;51.076;7.950;2022-11-15T00:51:14;96531.88;;;9.53;100.00
55032;BME280;40928;51.076;7.950;2022-11-15T00:53:58;96530.59;;;9.55;100.00
55032;BME280;40928;51.076;7.950;2022-11-15T00:56:42;96525.56;;;9.59;100.00
55032;BME280;40928;51.076;7.950;2022-11-15T00:59:26;96526.88;;;9.56;100.00
55032;BME280;40928;51.076;7.950;2022-11-15T01:02:10;96514.03;;;9.53;100.00
55032;BME280;40928;51.076;7.950;2022-11-15T01:04:54;96512.81;;;9.61;100.00
55032;BME280;40928;51.076;7.950;2022-11-15T01:07:38;96512.28;;;9.81;100.00
55032;BME280;40928;51.076;7.950;2022-11-15T01:10:22;96509.78;;;9.74;100.00
55032;BME280;40928;51.076;7.950;2022-11-15T01:13:07;96511.75;;;9.62;100.00
55032;BME280;40928;51.076;7.950;2022-11-15T01:15:51;96506.72;;;9.66;100.00
55032;BME280;40928;51.076;7.950;2022-11-15T01:18:35;96508.78;;;9.58;100.00
55032;BME280;40928;51.076;7.950;2022-11-15T01:21:20;96502.13;;;9.61;100.00
55032;BME280;40928;51.076;7.950;2022-11-15T01:24:04;96502.31;;;9.54;100.00
55032;BME280;40928;51.076;7.950;2022-11-15T01:26:48;96506.59;;;9.55;100.00
55032;BME280;40928;51.076;7.950;2022-11-15T01:29:32;96507.66;;;9.54;100.00
55032;BME280;40928;51.076;7.950;2022-11-15T01:32:16;96512.97;;;9.54;100.00
55032;BME280;40928;51.076;7.950;2022-11-15T01:35:01;96505.53;;;9.56;100.00
55032;BME280;40928;51.076;7.950;2022-11-15T01:37:45;96505.16;;;9.65;100.00
55032;BME280;40928;51.076;7.950;2022-11-15T01:40:29;96501.28;;;9.78;100.00
55032;BME280;40928;51.076;7.950;2022-11-15T01:43:33;96515.19;;;9.80;100.00
55032;BME280;40928;51.076;7.950;2022-11-15T01:46:22;96497.34;;;9.80;100.00
55032;BME280;40928;51.076;7.950;2022-11-15T01:49:14;96494.13;;;9.78;100.00
55032;BME280;40928;51.076;7.950;2022-11-15T01:52:01;96494.59;;;9.75;100.00
55032;BME280;40928;51.076;7.950;2022-11-15T01:54:47;96489.75;;;9.72;100.00
55032;BME280;40928;51.076;7.950;2022-11-15T01:57:33;96487.56;;;9.86;100.00
55032;BME280;40928;51.076;7.950;2022-11-15T02:00:17;96494.88;;;9.96;100.00
55032;BME280;40928;51.076;7.950;2022-11-15T02:03:02;96479.78;;;9.84;100.00
55032;BME280;40928;51.076;7.950;2022-11-15T02:05:46;96480.78;;;9.78;100.00
55032;BME280;40928;51.076;7.950;2022-11-15T02:08:29;96479.41;;;9.75;100.00
55032;BME280;40928;51.076;7.950;2022-11-15T02:11:13;96478.59;;;9.75;100.00
55032;BME280;40928;51.076;7.950;2022-11-15T02:13:58;96469.88;;;9.80;100.00
55032;BME280;40928;51.076;7.950;2022-11-15T02:28:16;96444.50;;;9.77;100.00
55032;BME280;40928;51.076;7.950;2022-11-15T02:37:21;96451.50;;;9.61;100.00
55032;BME280;40928;51.076;7.950;2022-11-15T02:43:31;96446.72;;;9.63;100.00
55032;BME280;40928;51.076;7.950;2022-11-15T02:46:39;96444.94;;;9.69;100.00
55032;BME280;40928;51.076;7.950;2022-11-15T02:49:47;96436.06;;;9.63;100.00
55032;BME280;40928;51.076;7.950;2022-11-15T02:52:32;96437.50;;;9.71;100.00
55032;BME280;40928;51.076;7.950;2022-11-15T03:07:19;96414.44;;;9.59;100.00
55032;BME280;40928;51.076;7.950;2022-11-15T03:10:32;96419.28;;;9.63;100.00
55032;BME280;40928;51.076;7.950;2022-11-15T03:13:27;96420.00;;;9.58;100.00
55032;BME280;40928;51.076;7.950;2022-11-15T03:16:37;96416.66;;;9.68;100.00
55032;BME280;40928;51.076;7.950;2022-11-15T03:19:30;96423.00;;;9.62;100.00
55032;BME280;40928;51.076;7.950;2022-11-15T03:22:20;96437.38;;;9.60;100.00
55032;BME280;40928;51.076;7.950;2022-11-15T03:25:08;96426.03;;;9.70;100.00
55032;BME280;40928;51.076;7.950;2022-11-15T03:27:55;96419.56;;;9.66;100.00
55032;BME280;40928;51.076;7.950;2022-11-15T03:30:43;96420.25;;;9.56;100.00
55032;BME280;40928;51.076;7.950;2022-11-15T03:33:30;96416.47;;;9.52;100.00
55032;BME280;40928;51.076;7.950;2022-11-15T03:36:14;96427.06;;;9.47;100.00
55032;BME280;40928;51.076;7.950;2022-11-15T03:39:03;96421.41;;;9.43;100.00
55032;BME280;40928;51.076;7.950;2022-11-15T03:47:38;96435.78;;;9.42;100.00
55032;BME280;40928;51.076;7.950;2022-11-15T03:50:24;96427.78;;;9.42;100.00
55032;BME280;40928;51.076;7.950;2022-11-15T03:53:08;96425.13;;;9.42;100.00
55032;BME280;40928;51.076;7.950;2022-11-15T03:55:53;96435.47;;;9.39;100.00
55032;BME280;40928;51.076;7.950;2022-11-15T03:58:37;96427.25;;;9.40;100.00
55032;BME280;40928;51.076;7.950;2022-11-15T04:01:21;96435.00;;;9.42;100.00
55032;BME280;40928;51.076;7.950;2022-11-15T04:04:04;96427.25;;;9.40;100.00
55032;BME280;40928;51.076;7.950;2022-11-15T04:06:48;96426.19;;;9.41;100.00
55032;BME280;40928;51.076;7.950;2022-11-15T04:09:32;96431.41;;;9.53;100.00
55032;BME280;40928;51.076;7.950;2022-11-15T04:12:16;96428.34;;;9.44;100.00
55032;BME280;40928;51.076;7.950;2022-11-15T04:15:20;96428.91;;;9.47;100.00
55032;BME280;40928;51.076;7.950;2022-11-15T04:18:04;96423.84;;;9.45;100.00
55032;BME280;40928;51.076;7.950;2022-11-15T04:20:48;96417.94;;;9.43;100.00
55032;BME280;40928;51.076;7.950;2022-11-15T04:23:51;96415.78;;;9.40;100.00
55032;BME280;40928;51.076;7.950;2022-11-15T04:26:38;96406.72;;;9.41;100.00
55032;BME280;40928;51.076;7.950;2022-11-15T04:29:22;96414.22;;;9.44;100.00
55032;BME280;40928;51.076;7.950;2022-11-15T04:32:19;96411.25;;;9.40;100.00
55032;BME280;40928;51.076;7.950;2022-11-15T04:35:03;96410.69;;;9.38;100.00
55032;BME280;40928;51.076;7.950;2022-11-15T04:37:47;96416.91;;;9.44;100.00
55032;BME280;40928;51.076;7.950;2022-11-15T04:40:31;96406.81;;;9.46;100.00
55032;BME280;40928;51.076;7.950;2022-11-15T04:43:15;96399.28;;;9.43;100.00
55032;BME280;40928;51.076;7.950;2022-11-15T04:45:59;96412.06;;;9.41;100.00
55032;BME280;40928;51.076;7.950;2022-11-15T04:48:43;96414.47;;;9.42;100.00
55032;BME280;40928;51.076;7.950;2022-11-15T04:51:27;96408.34;;;9.42;100.00
55032;BME280;40928;51.076;7.950;2022-11-15T04:54:12;96420.06;;;9.41;100.00
55032;BME280;40928;51.076;7.950;2022-11-15T04:56:55;96406.84;;;9.51;100.00
55032;BME280;40928;51.076;7.950;2022-11-15T04:59:39;96400.91;;;9.44;100.00
55032;BME280;40928;51.076;7.950;2022-11-15T05:02:23;96410.53;;;9.45;100.00
55032;BME280;40928;51.076;7.950;2022-11-15T05:05:08;96413.75;;;9.47;100.00
55032;BME280;40928;51.076;7.950;2022-11-15T05:07:51;96423.53;;;9.41;100.00
55032;BME280;40928;51.076;7.950;2022-11-15T05:10:35;96422.63;;;9.36;100.00
55032;BME280;40928;51.076;7.950;2022-11-15T05:13:20;96412.13;;;9.46;100.00
55032;BME280;40928;51.076;7.950;2022-11-15T05:16:05;96419.00;;;9.42;100.00
55032;BME280;40928;51.076;7.950;2022-11-15T05:18:55;96415.69;;;9.35;100.00
55032;BME280;40928;51.076;7.950;2022-11-15T05:21:39;96415.94;;;9.33;100.00
55032;BME280;40928;51.076;7.950;2022-11-15T05:24:23;96415.19;;;9.38;100.00
55032;BME280;40928;51.076;7.950;2022-11-15T05:27:07;96432.88;;;9.44;100.00
55032;BME280;40928;51.076;7.950;2022-11-15T05:29:52;96410.38;;;9.35;100.00
55032;BME280;40928;51.076;7.950;2022-11-15T05:32:36;96407.69;;;9.35;100.00
55032;BME280;40928;51.076;7.950;2022-11-15T05:35:30;96398.34;;;9.32;100.00
55032;BME280;40928;51.076;7.950;2022-11-15T05:38:16;96413.84;;;9.35;100.00
55032;BME280;40928;51.076;7.950;2022-11-15T05:41:01;96408.03;;;9.38;100.00
55032;BME280;40928;51.076;7.950;2022-11-15T05:43:48;96414.63;;;9.36;100.00
55032;BME280;40928;51.076;7.950;2022-11-15T05:46:33;96407.78;;;9.40;100.00
55032;BME280;40928;51.076;7.950;2022-11-15T05:49:20;96410.75;;;9.43;100.00
55032;BME280;40928;51.076;7.950;2022-11-15T05:52:07;96410.44;;;9.40;100.00
55032;BME280;40928;51.076;7.950;2022-11-15T05:54:53;96407.91;;;9.50;100.00
55032;BME280;40928;51.076;7.950;2022-11-15T05:57:39;96417.69;;;9.44;100.00
55032;BME280;40928;51.076;7.950;2022-11-15T06:00:22;96422.16;;;9.39;100.00
55032;BME280;40928;51.076;7.950;2022-11-15T06:03:07;96416.59;;;9.40;100.00
55032;BME280;40928;51.076;7.950;2022-11-15T06:05:51;96413.09;;;9.40;100.00
55032;BME280;40928;51.076;7.950;2022-11-15T06:08:36;96414.97;;;9.39;100.00
55032;BME280;40928;51.076;7.950;2022-11-15T06:11:20;96419.47;;;9.39;100.00
55032;BME280;40928;51.076;7.950;2022-11-15T06:14:04;96410.44;;;9.40;100.00
55032;BME280;40928;51.076;7.950;2022-11-15T06:16:48;96412.91;;;9.47;100.00
55032;BME280;40928;51.076;7.950;2022-11-15T06:19:32;96413.94;;;9.63;100.00
55032;BME280;40928;51.076;7.950;2022-11-15T06:22:16;96412.31;;;9.62;100.00
55032;BME280;40928;51.076;7.950;2022-11-15T06:25:00;96412.50;;;9.55;100.00
55032;BME280;40928;51.076;7.950;2022-11-15T06:27:51;96408.97;;;9.49;100.00
55032;BME280;40928;51.076;7.950;2022-11-15T06:30:35;96415.59;;;9.47;100.00
55032;BME280;40928;51.076;7.950;2022-11-15T06:33:19;96418.50;;;9.45;100.00
55032;BME280;40928;51.076;7.950;2022-11-15T06:36:04;96420.31;;;9.39;100.00
55032;BME280;40928;51.076;7.950;2022-11-15T06:38:49;96424.81;;;9.39;100.00
55032;BME280;40928;51.076;7.950;2022-11-15T06:41:34;96430.13;;;9.39;100.00
55032;BME280;40928;51.076;7.950;2022-11-15T06:44:19;96425.94;;;9.43;100.00
55032;BME280;40928;51.076;7.950;2022-11-15T06:47:03;96429.66;;;9.42;100.00
55032;BME280;40928;51.076;7.950;2022-11-15T06:49:48;96431.75;;;9.40;100.00
55032;BME280;40928;51.076;7.950;2022-11-15T06:52:32;96440.97;;;9.49;100.00
55032;BME280;40928;51.076;7.950;2022-11-15T06:55:16;96438.69;;;9.41;100.00
55032;BME280;40928;51.076;7.950;2022-11-15T06:58:00;96431.44;;;9.36;100.00
55032;BME280;40928;51.076;7.950;2022-11-15T07:00:44;96446.13;;;9.39;100.00
55032;BME280;40928;51.076;7.950;2022-11-15T07:03:29;96445.91;;;9.40;100.00
55032;BME280;40928;51.076;7.950;2022-11-15T07:06:13;96454.59;;;9.36;100.00
55032;BME280;40928;51.076;7.950;2022-11-15T07:08:57;96447.91;;;9.33;100.00
55032;BME280;40928;51.076;7.950;2022-11-15T07:11:41;96453.56;;;9.37;100.00
55032;BME280;40928;51.076;7.950;2022-11-15T07:14:25;96449.34;;;9.41;100.00
55032;BME280;40928;51.076;7.950;2022-11-15T07:17:08;96448.56;;;9.40;100.00
55032;BME280;40928;51.076;7.950;2022-11-15T07:19:53;96447.75;;;9.40;100.00
55032;BME280;40928;51.076;7.950;2022-11-15T07:22:37;96458.97;;;9.42;100.00
55032;BME280;40928;51.076;7.950;2022-11-15T07:25:21;96453.16;;;9.45;100.00
55032;BME280;40928;51.076;7.950;2022-11-15T07:28:05;96450.19;;;9.41;100.00
55032;BME280;40928;51.076;7.950;2022-11-15T07:30:49;96447.75;;;9.40;100.00
55032;BME280;40928;51.076;7.950;2022-11-15T07:33:33;96455.50;;;9.41;100.00
55032;BME280;40928;51.076;7.950;2022-11-15T07:36:18;96456.56;;;9.40;100.00
55032;BME280;40928;51.076;7.950;2022-11-15T07:39:02;96457.66;;;9.44;100.00
55032;BME280;40928;51.076;7.950;2022-11-15T07:41:46;96451.53;;;9.44;100.00
55032;BME280;40928;51.076;7.950;2022-11-15T07:44:31;96451.78;;;9.42;100.00
55032;BME280;40928;51.076;7.950;2022-11-15T07:47:15;96457.00;;;9.54;100.00
55032;BME280;40928;51.076;7.950;2022-11-15T07:49:59;96462.28;;;9.49;100.00
55032;BME280;40928;51.076;7.950;2022-11-15T07:52:43;96455.06;;;9.50;100.00
55032;BME280;40928;51.076;7.950;2022-11-15T07:55:28;96461.28;;;9.55;100.00
55032;BME280;40928;51.076;7.950;2022-11-15T07:58:13;96445.94;;;9.63;100.00
55032;BME280;40928;51.076;7.950;2022-11-15T08:00:57;96458.69;;;9.60;100.00
55032;BME280;40928;51.076;7.950;2022-11-15T08:03:41;96462.41;;;9.59;100.00
55032;BME280;40928;51.076;7.950;2022-11-15T08:06:25;96455.47;;;9.58;100.00
55032;BME280;40928;51.076;7.950;2022-11-15T08:09:09;96456.78;;;9.56;100.00
55032;BME280;40928;51.076;7.950;2022-11-15T08:11:53;96457.56;;;9.56;100.00
55032;BME280;40928;51.076;7.950;2022-11-15T08:14:37;96454.63;;;9.58;100.00
55032;BME280;40928;51.076;7.950;2022-11-15T08:17:25;96450.63;;;9.55;100.00
55032;BME280;40928;51.076;7.950;2022-11-15T08:20:10;96455.94;;;9.55;100.00
55032;BME280;40928;51.076;7.950;2022-11-15T08:22:57;96457.56;;;9.56;100.00
55032;BME280;40928;51.076;7.950;2022-11-15T08:25:41;96451.44;;;9.56;100.00
55032;BME280;40928;51.076;7.950;2022-11-15T08:28:25;96441.28;;;9.53;100.00
55032;BME280;40928;51.076;7.950;2022-11-15T08:31:14;96448.69;;;9.51;100.00
55032;BME280;40928;51.076;7.950;2022-11-15T08:34:00;96440.59;;;9.63;100.00
55032;BME280;40928;51.076;7.950;2022-11-15T08:36:45;96443.97;;;9.58;100.00
55032;BME280;40928;51.076;7.950;2022-11-15T08:39:29;96438.41;;;9.59;100.00
55032;BME280;40928;51.076;7.950;2022-11-15T08:42:13;96437.13;;;9.62;100.00
55032;BME280;40928;51.076;7.950;2022-11-15T08:44:58;96435.56;;;9.66;100.00
55032;BME280;40928;51.076;7.950;2022-11-15T08:47:42;96431.56;;;9.64;100.00
55032;BME280;40928;51.076;7.950;2022-11-15T08:50:26;96433.16;;;9.65;100.00
55032;BME280;40928;51.076;7.950;2022-11-15T08:53:10;96426.75;;;9.66;100.00
55032;BME280;40928;51.076;7.950;2022-11-15T08:55:54;96427.28;;;9.63;100.00
55032;BME280;40928;51.076;7.950;2022-11-15T08:58:39;96434.72;;;9.60;100.00
55032;BME280;40928;51.076;7.950;2022-11-15T09:01:24;96425.47;;;9.68;100.00
55032;BME280;40928;51.076;7.950;2022-11-15T09:04:08;96428.94;;;9.69;100.00
55032;BME280;40928;51.076;7.950;2022-11-15T09:06:52;96419.66;;;9.71;100.00
55032;BME280;40928;51.076;7.950;2022-11-15T09:09:36;96418.06;;;9.75;100.00
55032;BME280;40928;51.076;7.950;2022-11-15T09:12:21;96429.06;;;9.79;100.00
55032;BME280;40928;51.076;7.950;2022-11-15T09:15:06;96422.34;;;9.77;100.00
55032;BME280;40928;51.076;7.950;2022-11-15T09:17:50;96416.78;;;9.78;100.00
55032;BME280;40928;51.076;7.950;2022-11-15T09:20:34;96420.03;;;9.80;100.00
55032;BME280;40928;51.076;7.950;2022-11-15T09:23:18;96421.06;;;9.79;100.00
55032;BME280;40928;51.076;7.950;2022-11-15T09:26:03;96416.03;;;9.83;100.00
55032;BME280;40928;51.076;7.950;2022-11-15T09:28:48;96422.88;;;9.96;100.00
55032;BME280;40928;51.076;7.950;2022-11-15T09:31:32;96414.31;;;9.94;100.00
55032;BME280;40928;51.076;7.950;2022-11-15T09:34:17;96410.38;;;10.01;100.00
55032;BME280;40928;51.076;7.950;2022-11-15T09:37:01;96401.78;;;10.21;100.00
55032;BME280;40928;51.076;7.950;2022-11-15T09:39:45;96405.53;;;10.48;100.00
55032;BME280;40928;51.076;7.950;2022-11-15T09:49:04;96397.13;;;10.61;100.00
55032;BME280;40928;51.076;7.950;2022-11-15T09:51:35;96402.09;;;10.53;100.00
55032;BME280;40928;51.076;7.950;2022-11-15T09:56:37;96392.50;;;10.51;100.00
55032;BME280;40928;51.076;7.950;2022-11-15T10:04:15;96378.31;;;10.84;96.42
55032;BME280;40928;51.076;7.950;2022-11-15T10:06:51;96374.00;;;10.77;96.19
55032;BME280;40928;51.076;7.950;2022-11-15T10:09:31;96370.88;;;10.91;94.26
55032;BME280;40928;51.076;7.950;2022-11-15T10:11:59;96366.53;;;10.79;94.32
55032;BME280;40928;51.076;7.950;2022-11-15T10:14:27;96378.97;;;11.01;92.37
55032;BME280;40928;51.076;7.950;2022-11-15T10:24:50;96364.16;;;10.83;92.50
55032;BME280;40928;51.076;7.950;2022-11-15T10:27:18;96369.81;;;10.92;92.88
55032;BME280;40928;51.076;7.950;2022-11-15T10:32:12;96368.84;;;11.08;91.31
55032;BME280;40928;51.076;7.950;2022-11-15T10:34:38;96365.72;;;11.17;90.80
55032;BME280;40928;51.076;7.950;2022-11-15T10:37:03;96355.94;;;11.38;88.53
55032;BME280;40928;51.076;7.950;2022-11-15T10:39:29;96355.88;;;11.96;85.19
55032;BME280;40928;51.076;7.950;2022-11-15T10:41:55;96345.09;;;11.76;84.86
55032;BME280;40928;51.076;7.950;2022-11-15T10:44:26;96346.22;;;11.90;84.88
55032;BME280;40928;51.076;7.950;2022-11-15T10:49:23;96326.41;;;13.10;80.21
55032;BME280;40928;51.076;7.950;2022-11-15T10:52:18;96320.56;;;14.19;74.52
55032;BME280;40928;51.076;7.950;2022-11-15T10:54:52;96337.75;;;14.18;72.74
55032;BME280;40928;51.076;7.950;2022-11-15T10:57:22;96329.59;;;13.28;72.65
55032;BME280;40928;51.076;7.950;2022-11-15T10:59:52;96313.88;;;12.95;74.41
55032;BME280;40928;51.076;7.950;2022-11-15T11:04:55;96304.72;;;13.01;74.42
55032;BME280;40928;51.076;7.950;2022-11-15T11:07:27;96315.66;;;13.25;73.82
55032;BME280;40928;51.076;7.950;2022-11-15T11:10:19;96302.59;;;13.79;73.09
55032;BME280;40928;51.076;7.950;2022-11-15T11:12:45;96302.88;;;14.18;72.18
55032;BME280;40928;51.076;7.950;2022-11-15T11:15:15;96302.16;;;14.41;69.63
55032;BME280;40928;51.076;7.950;2022-11-15T11:18:03;96300.13;;;15.41;67.28
55032;BME280;40928;51.076;7.950;2022-11-15T11:20:49;96318.44;;;15.63;65.21
55032;BME280;40928;51.076;7.950;2022-11-15T11:28:54;96309.91;;;15.31;64.48
55032;BME280;40928;51.076;7.950;2022-11-15T11:40:12;96275.28;;;16.58;58.90
55032;BME280;40928;51.076;7.950;2022-11-15T11:42:50;96284.88;;;17.26;54.40
55032;BME280;40928;51.076;7.950;2022-11-15T11:50:37;96276.03;;;18.13;49.25
55032;BME280;40928;51.076;7.950;2022-11-15T11:53:30;96263.88;;;18.01;46.71
55032;BME280;40928;51.076;7.950;2022-11-15T11:56:01;96261.00;;;17.98;46.10
55032;BME280;40928;51.076;7.950;2022-11-15T11:58:35;96250.78;;;18.17;46.51
55032;BME280;40928;51.076;7.950;2022-11-15T12:01:15;96257.50;;;18.20;45.48
55032;BME280;40928;51.076;7.950;2022-11-15T12:04:08;96247.13;;;17.26;47.21
55032;BME280;40928;51.076;7.950;2022-11-15T12:06:45;96249.50;;;16.99;47.88
55032;BME280;40928;51.076;7.950;2022-11-15T12:12:01;96244.00;;;15.72;51.64
55032;BME280;40928;51.076;7.950;2022-11-15T12:14:42;96249.09;;;14.87;54.84
55032;BME280;40928;51.076;7.950;2022-11-15T12:17:11;96240.28;;;14.22;57.19
55032;BME280;40928;51.076;7.950;2022-11-15T12:19:38;96230.53;;;14.31;58.33
55032;BME280;40928;51.076;7.950;2022-11-15T12:25:08;96237.56;;;13.93;59.35
55032;BME280;40928;51.076;7.950;2022-11-15T12:30:47;96231.97;;;13.39;62.32
55032;BME280;40928;51.076;7.950;2022-11-15T12:33:41;96235.84;;;13.07;62.85
55032;BME280;40928;51.076;7.950;2022-11-15T12:36:29;96232.47;;;12.81;64.83
55032;BME280;40928;51.076;7.950;2022-11-15T12:38:58;96225.78;;;12.68;66.24
55032;BME280;40928;51.076;7.950;2022-11-15T12:41:28;96212.41;;;12.68;66.67
55032;BME280;40928;51.076;7.950;2022-11-15T12:43:55;96224.13;;;12.87;66.17
55032;BME280;40928;51.076;7.950;2022-11-15T12:59:58;96196.25;;;12.88;64.65
55032;BME280;40928;51.076;7.950;2022-11-15T13:02:43;96190.06;;;12.93;63.80
55032;BME280;40928;51.076;7.950;2022-11-15T13:25:41;96153.28;;;12.48;67.35
55032;BME280;40928;51.076;7.950;2022-11-15T13:30:50;96141.25;;;12.36;67.11
55032;BME280;40928;51.076;7.950;2022-11-15T13:35:51;96136.91;;;12.55;67.07
55032;BME280;40928;51.076;7.950;2022-11-15T13:40:49;96124.06;;;12.52;66.65
55032;BME280;40928;51.076;7.950;2022-11-15T13:43:35;96125.38;;;12.55;66.81
55032;BME280;40928;51.076;7.950;2022-11-15T13:46:11;96123.53;;;12.55;66.79
55032;BME280;40928;51.076;7.950;2022-11-15T13:48:39;96110.44;;;12.48;67.12
55032;BME280;40928;51.076;7.950;2022-11-15T13:51:13;96108.28;;;12.45;67.49
55032;BME280;40928;51.076;7.950;2022-11-15T13:53:44;96113.34;;;12.47;67.55
55032;BME280;40928;51.076;7.950;2022-11-15T13:56:13;96110.19;;;12.45;67.17
55032;BME280;40928;51.076;7.950;2022-11-15T13:58:40;96109.59;;;12.48;67.33
55032;BME280;40928;51.076;7.950;2022-11-15T14:01:06;96105.63;;;12.45;67.79
55032;BME280;40928;51.076;7.950;2022-11-15T14:03:42;96104.06;;;12.24;68.66
55032;BME280;40928;51.076;7.950;2022-11-15T14:06:15;96103.78;;;12.30;68.68
55032;BME280;40928;51.076;7.950;2022-11-15T14:08:57;96098.69;;;12.34;68.76
55032;BME280;40928;51.076;7.950;2022-11-15T14:11:24;96093.63;;;12.27;69.15
55032;BME280;40928;51.076;7.950;2022-11-15T14:16:35;96087.47;;;12.32;69.75
55032;BME280;40928;51.076;7.950;2022-11-15T14:19:03;96091.97;;;12.37;69.81
55032;BME280;40928;51.076;7.950;2022-11-15T14:21:29;96093.06;;;12.36;70.11
55032;BME280;40928;51.076;7.950;2022-11-15T14:24:18;96093.06;;;12.30;70.65
55032;BME280;40928;51.076;7.950;2022-11-15T14:26:44;96077.34;;;12.13;72.14
55032;BME280;40928;51.076;7.950;2022-11-15T14:29:27;96082.44;;;12.10;72.32
55032;BME280;40928;51.076;7.950;2022-11-15T14:32:05;96083.75;;;11.97;73.41
55032;BME280;40928;51.076;7.950;2022-11-15T14:34:32;96074.69;;;12.03;73.34
55032;BME280;40928;51.076;7.950;2022-11-15T14:36:57;96071.19;;;11.97;74.28
55032;BME280;40928;51.076;7.950;2022-11-15T14:39:23;96071.75;;;11.89;75.29
55032;BME280;40928;51.076;7.950;2022-11-15T14:41:50;96067.75;;;11.86;75.64
55032;BME280;40928;51.076;7.950;2022-11-15T14:44:16;96062.94;;;11.83;76.12
55032;BME280;40928;51.076;7.950;2022-11-15T14:46:43;96049.59;;;11.73;76.79
55032;BME280;40928;51.076;7.950;2022-11-15T14:49:09;96047.44;;;11.70;77.21
55032;BME280;40928;51.076;7.950;2022-11-15T14:51:44;96042.63;;;11.67;77.30
55032;BME280;40928;51.076;7.950;2022-11-15T14:54:10;96040.22;;;11.65;77.52
55032;BME280;40928;51.076;7.950;2022-11-15T14:56:36;96041.84;;;11.66;77.95
55032;BME280;40928;51.076;7.950;2022-11-15T14:59:01;96023.66;;;11.53;78.67
55032;BME280;40928;51.076;7.950;2022-11-15T15:01:27;96023.94;;;11.56;78.77
55032;BME280;40928;51.076;7.950;2022-11-15T15:03:53;96032.50;;;11.43;79.33
55032;BME280;40928;51.076;7.950;2022-11-15T15:06:22;96021.53;;;11.39;79.65
55032;BME280;40928;51.076;7.950;2022-11-15T15:08:48;96017.53;;;11.37;80.06
55032;BME280;40928;51.076;7.950;2022-11-15T15:11:21;96009.50;;;11.32;80.62
55032;BME280;40928;51.076;7.950;2022-11-15T15:13:47;96007.09;;;11.30;81.03
55032;BME280;40928;51.076;7.950;2022-11-15T15:16:13;96015.66;;;11.22;81.37
55032;BME280;40928;51.076;7.950;2022-11-15T15:18:39;96005.25;;;11.10;82.23
55032;BME280;40928;51.076;7.950;2022-11-15T15:21:20;96000.72;;;11.05;82.90
55032;BME280;40928;51.076;7.950;2022-11-15T15:23:46;95994.03;;;11.08;82.84
55032;BME280;40928;51.076;7.950;2022-11-15T15:26:11;95989.75;;;11.07;83.51
55032;BME280;40928;51.076;7.950;2022-11-15T15:28:37;95988.41;;;11.04;83.84
55032;BME280;40928;51.076;7.950;2022-11-15T15:31:04;95992.16;;;10.98;84.73
55032;BME280;40928;51.076;7.950;2022-11-15T15:33:31;95992.97;;;10.93;85.36
55032;BME280;40928;51.076;7.950;2022-11-15T15:35:57;95992.16;;;10.88;86.14
55032;BME280;40928;51.076;7.950;2022-11-15T15:38:22;95992.41;;;10.91;86.15
55032;BME280;40928;51.076;7.950;2022-11-15T15:40:48;95982.53;;;10.87;86.14
55032;BME280;40928;51.076;7.950;2022-11-15T15:43:13;95986.28;;;10.86;85.83
55032;BME280;40928;51.076;7.950;2022-11-15T15:45:41;95979.84;;;10.81;85.97
55032;BME280;40928;51.076;7.950;2022-11-15T15:48:14;95979.84;;;10.81;85.89
55032;BME280;40928;51.076;7.950;2022-11-15T15:50:41;95983.88;;;10.79;86.17
55032;BME280;40928;51.076;7.950;2022-11-15T15:53:09;95971.81;;;10.76;86.34
55032;BME280;40928;51.076;7.950;2022-11-15T15:55:36;95983.31;;;10.77;86.22
55032;BME280;40928;51.076;7.950;2022-11-15T15:58:02;95977.72;;;10.73;86.29
55032;BME280;40928;51.076;7.950;2022-11-15T16:00:28;95981.97;;;10.79;86.06
55032;BME280;40928;51.076;7.950;2022-11-15T16:02:54;95964.88;;;10.75;86.09
55032;BME280;40928;51.076;7.950;2022-11-15T16:05:21;95963.56;;;10.73;86.38
55032;BME280;40928;51.076;7.950;2022-11-15T16:07:47;95960.34;;;10.65;86.89
55032;BME280;40928;51.076;7.950;2022-11-15T16:10:24;95969.69;;;10.63;87.11
55032;BME280;40928;51.076;7.950;2022-11-15T16:12:50;95967.81;;;10.58;87.97
55032;BME280;40928;51.076;7.950;2022-11-15T16:15:16;95966.19;;;10.52;88.67
55032;BME280;40928;51.076;7.950;2022-11-15T16:17:56;95971.25;;;10.48;88.85
55032;BME280;40928;51.076;7.950;2022-11-15T16:20:36;95967.78;;;10.53;89.09
55032;BME280;40928;51.076;7.950;2022-11-15T16:23:05;95960.06;;;10.51;88.79
55032;BME280;40928;51.076;7.950;2022-11-15T16:25:34;95964.34;;;10.53;88.88
55032;BME280;40928;51.076;7.950;2022-11-15T16:28:02;95955.78;;;10.50;89.48
55032;BME280;40928;51.076;7.950;2022-11-15T16:30:27;95962.22;;;10.55;89.19